Time;durP1;ratioP1;P1;durP2;ratioP2;P2;SDS_P1;SDS_P2;PMS_P1;PMS_P2;Temp;Humidity;BMP_temperature;BMP_pressure;BME280_temperature;BME280_humidity;BME280_pressure;Samples;Min_cycle;Max_cycle;Signal;HPM_P1;HPM_P2
2021/12/02 00:01:18;;;;;;;22.73;11.35;;;8.40;91.00;;;;;;5044389;28;20510;-81
2021/12/02 00:03:47;;;;;;;8.70;4.65;;;8.40;90.80;;;;;;5044812;28;20082;-81
2021/12/02 00:06:15;;;;;;;6.22;3.05;;;8.40;90.80;;;;;;5043353;28;20399;-81
2021/12/02 00:08:42;;;;;;;47.83;16.70;;;8.40;90.90;;;;;;5045859;28;20029;-81
2021/12/02 00:11:08;;;;;;;403.75;159.18;;;8.30;91.20;;;;;;5044069;28;20287;-81
2021/12/02 00:21:22;;;;;;;20.75;7.32;;;8.20;92.00;;;;;;5044266;28;20234;-81
2021/12/02 00:24:07;;;;;;;4.90;2.75;;;7.90;92.30;;;;;;5045880;28;20079;-81
2021/12/02 00:26:36;;;;;;;6.82;4.18;;;8.10;92.90;;;;;;5046043;28;20312;-81
2021/12/02 00:29:05;;;;;;;8.32;3.83;;;8.00;93.40;;;;;;5046503;28;20021;-81
2021/12/02 00:31:35;;;;;;;310.65;139.52;;;7.90;93.60;;;;;;5047378;28;20014;-81
2021/12/02 00:34:08;;;;;;;279.98;124.82;;;7.90;93.70;;;;;;5047164;28;20648;-81
2021/12/02 00:36:37;;;;;;;108.75;49.67;;;7.80;94.20;;;;;;5052714;28;20025;-80
2021/12/02 00:39:15;;;;;;;38.33;17.30;;;7.70;94.30;;;;;;5054008;28;20125;-81
2021/12/02 00:41:42;;;;;;;16.42;8.45;;;7.70;94.40;;;;;;5052388;28;20144;-81
2021/12/02 00:44:11;;;;;;;25.52;13.25;;;7.60;94.60;;;;;;5052006;28;20194;-81
2021/12/02 00:46:37;;;;;;;53.72;24.63;;;7.60;94.80;;;;;;5044119;28;20028;-81
2021/12/02 00:49:07;;;;;;;24.50;12.15;;;7.60;94.80;;;;;;5042195;28;20111;-81
2021/12/02 00:51:35;;;;;;;18.63;9.55;;;7.50;94.90;;;;;;5041553;28;20404;-81
2021/12/02 00:54:06;;;;;;;18.65;9.75;;;7.50;95.00;;;;;;5041642;28;20348;-81
2021/12/02 00:56:32;;;;;;;318.65;110.28;;;7.40;95.20;;;;;;5041355;28;20296;-81
2021/12/02 00:58:59;;;;;;;108.38;37.95;;;7.50;95.50;;;;;;5041982;28;20135;-81
2021/12/02 01:01:33;;;;;;;18.50;9.60;;;7.20;95.70;;;;;;5042508;28;20044;-81
2021/12/02 01:04:00;;;;;;;18.45;9.88;;;7.20;95.80;;;;;;5041106;28;20021;-81
2021/12/02 01:06:26;;;;;;;12.27;6.85;;;7.20;96.00;;;;;;5041320;28;20316;-81
2021/12/02 01:08:53;;;;;;;15.32;8.20;;;7.10;95.90;;;;;;5041772;28;20108;-81
2021/12/02 01:11:19;;;;;;;16.40;8.05;;;7.10;96.00;;;;;;5042505;28;20617;-81
2021/12/02 01:13:46;;;;;;;203.90;66.22;;;7.00;96.10;;;;;;5042266;28;20013;-81
2021/12/02 01:16:12;;;;;;;241.98;83.25;;;7.10;96.50;;;;;;5040893;28;20507;-81
2021/12/02 01:18:38;;;;;;;235.98;79.03;;;7.00;96.60;;;;;;5042391;28;20012;-81
2021/12/02 01:21:06;;;;;;;144.60;51.75;;;7.00;96.70;;;;;;5043205;28;20438;-80
2021/12/02 01:23:33;;;;;;;73.68;28.30;;;7.00;96.80;;;;;;5042929;28;20050;-81
2021/12/02 01:26:05;;;;;;;51.22;22.27;;;7.00;97.10;;;;;;5044792;28;20445;-81
2021/12/02 01:28:31;;;;;;;30.15;12.50;;;6.90;97.10;;;;;;5045266;28;20104;-81
2021/12/02 01:30:57;;;;;;;16.48;7.85;;;6.90;97.20;;;;;;5044105;28;20162;-81
2021/12/02 01:33:26;;;;;;;7.85;4.85;;;6.90;97.20;;;;;;5047407;28;20045;-81
2021/12/02 01:35:57;;;;;;;5.53;2.90;;;6.80;97.10;;;;;;5047905;28;20254;-81
2021/12/02 01:38:24;;;;;;;23.42;10.63;;;6.80;97.30;;;;;;5048291;28;20245;-80
2021/12/02 01:40:51;;;;;;;75.22;34.50;;;6.70;97.60;;;;;;5040392;28;20115;-80
2021/12/02 01:43:20;;;;;;;102.93;45.55;;;6.60;97.70;;;;;;5040037;28;20016;-80
2021/12/02 01:45:45;;;;;;;91.80;40.58;;;6.70;97.90;;;;;;5040746;28;20264;-80
2021/12/02 01:48:19;;;;;;;12.77;6.60;;;6.60;98.20;;;;;;5040689;28;20333;-80
2021/12/02 01:51:05;;;;;;;11.98;3.63;;;6.60;98.20;;;;;;5040002;28;20541;-80
2021/12/02 01:53:35;;;;;;;6.18;3.60;;;6.60;97.90;;;;;;5038490;28;20017;-80
2021/12/02 01:56:16;;;;;;;31.40;16.95;;;6.40;98.20;;;;;;5038442;28;20033;-80
2021/12/02 01:58:48;;;;;;;46.03;24.60;;;6.30;98.30;;;;;;5040733;28;20073;-81
2021/12/02 02:01:25;;;;;;;47.78;25.63;;;6.30;98.40;;;;;;5040033;28;20036;-81
2021/12/02 02:03:55;;;;;;;58.38;27.52;;;6.30;98.40;;;;;;5040550;28;20052;-80
2021/12/02 02:06:37;;;;;;;68.35;31.65;;;6.20;98.60;;;;;;5039791;28;20404;-81
2021/12/02 02:09:05;;;;;;;65.07;30.40;;;6.20;98.80;;;;;;5039592;28;20033;-81
2021/12/02 02:11:31;;;;;;;52.47;27.08;;;6.10;98.90;;;;;;5039754;28;20119;-81
2021/12/02 02:13:58;;;;;;;34.90;16.98;;;6.10;99.00;;;;;;5039631;28;20035;-81
2021/12/02 02:16:24;;;;;;;28.98;14.88;;;6.40;99.10;;;;;;5039814;28;20017;-81
2021/12/02 02:18:51;;;;;;;40.05;19.58;;;6.20;99.20;;;;;;5039832;28;20025;-81
2021/12/02 02:21:19;;;;;;;27.30;14.50;;;6.20;99.10;;;;;;5038748;28;20442;-81
2021/12/02 02:23:57;;;;;;;14.45;7.95;;;6.10;99.10;;;;;;5038241;28;20099;-81
2021/12/02 02:26:28;;;;;;;9.80;4.88;;;6.10;99.10;;;;;;5039870;28;20032;-81
2021/12/02 02:28:55;;;;;;;5.75;3.38;;;6.20;99.00;;;;;;5038253;28;20549;-81
2021/12/02 02:31:23;;;;;;;6.40;3.35;;;6.10;98.90;;;;;;5038363;28;20033;-82
2021/12/02 02:33:50;;;;;;;4.68;2.88;;;5.80;98.80;;;;;;5040409;28;20194;-81
2021/12/02 02:36:19;;;;;;;6.07;3.05;;;6.10;98.80;;;;;;5040591;28;20048;-81
2021/12/02 02:38:54;;;;;;;7.82;3.85;;;6.20;98.90;;;;;;5039287;28;20132;-82
2021/12/02 02:41:25;;;;;;;7.68;4.05;;;6.20;98.70;;;;;;5040159;28;20497;-81
2021/12/02 02:43:55;;;;;;;2.60;1.58;;;6.20;98.70;;;;;;5041401;28;20025;-81
2021/12/02 02:46:22;;;;;;;2.22;1.40;;;6.30;98.50;;;;;;5041120;28;20049;-81
2021/12/02 02:48:48;;;;;;;3.80;2.15;;;6.40;98.20;;;;;;5039641;28;20675;-81
2021/12/02 02:51:14;;;;;;;5.68;3.08;;;6.40;98.30;;;;;;5041300;28;20029;-80
2021/12/02 02:53:40;;;;;;;4.63;1.92;;;6.40;98.00;;;;;;5044422;28;20037;-81
2021/12/02 02:56:16;;;;;;;2.10;1.63;;;6.50;98.00;;;;;;5042864;28;20313;-81
2021/12/02 03:04:25;;;;;;;2.00;1.42;;;6.50;97.70;;;;;;5044060;28;20410;-82
2021/12/02 03:17:27;;;;;;;2.13;1.50;;;6.40;97.70;;;;;;5040943;28;20412;-80
2021/12/02 03:19:53;;;;;;;2.28;1.60;;;6.30;97.80;;;;;;5042262;28;20033;-80
2021/12/02 03:22:19;;;;;;;3.53;1.85;;;6.20;98.00;;;;;;5026301;28;20043;-81
2021/12/02 03:24:45;;;;;;;3.70;1.83;;;6.20;98.10;;;;;;5025678;28;20040;-81
2021/12/02 03:27:11;;;;;;;2.83;1.90;;;6.20;98.20;;;;;;5043001;28;20041;-81
2021/12/02 03:29:37;;;;;;;3.58;2.10;;;6.10;98.20;;;;;;5022693;28;20101;-81
2021/12/02 03:32:04;;;;;;;5.10;2.70;;;6.10;98.40;;;;;;5039134;28;20487;-81
2021/12/02 03:34:29;;;;;;;4.18;2.80;;;6.20;98.30;;;;;;5039059;28;20029;-81
2021/12/02 03:36:55;;;;;;;4.32;2.97;;;6.20;97.90;;;;;;5039180;28;20036;-81
2021/12/02 03:39:21;;;;;;;6.40;2.80;;;6.20;97.90;;;;;;5039114;28;20087;-80
2021/12/02 03:41:47;;;;;;;3.13;2.20;;;6.20;98.10;;;;;;5039111;28;20055;-80
2021/12/02 03:44:13;;;;;;;2.65;1.80;;;6.20;98.00;;;;;;5038407;28;20018;-80
2021/12/02 03:46:40;;;;;;;4.20;2.35;;;6.30;98.00;;;;;;5039824;28;20404;-81
2021/12/02 03:49:08;;;;;;;2.90;2.15;;;6.30;97.70;;;;;;5042029;28;20116;-80
2021/12/02 03:51:35;;;;;;;4.40;2.28;;;6.20;98.00;;;;;;5042194;28;20530;-81
2021/12/02 03:54:00;;;;;;;2.60;1.90;;;6.20;97.80;;;;;;5039921;28;20052;-80
2021/12/02 03:56:26;;;;;;;2.63;2.10;;;6.30;97.80;;;;;;5042072;28;20048;-81
2021/12/02 03:58:53;;;;;;;2.63;1.80;;;6.30;97.60;;;;;;5041771;28;20056;-80
2021/12/02 04:01:22;;;;;;;3.05;1.80;;;6.20;97.60;;;;;;5041740;28;20037;-80
2021/12/02 04:03:49;;;;;;;3.70;2.00;;;6.20;97.70;;;;;;5041766;28;20071;-81
2021/12/02 04:06:16;;;;;;;2.40;1.88;;;6.20;97.70;;;;;;5038895;28;20448;-81
2021/12/02 04:16:34;;;;;;;2.80;1.40;;;6.40;96.70;;;;;;5041695;28;20094;-81
2021/12/02 04:19:00;;;;;;;2.83;1.90;;;6.50;96.70;;;;;;5041426;28;20108;-80
2021/12/02 04:21:26;;;;;;;3.35;2.20;;;6.50;96.70;;;;;;5041646;28;20083;-80
2021/12/02 04:23:52;;;;;;;4.32;2.30;;;6.40;96.80;;;;;;5041225;28;20059;-81
2021/12/02 04:26:18;;;;;;;5.15;2.10;;;6.40;96.80;;;;;;5041548;28;20021;-80
2021/12/02 04:28:44;;;;;;;5.28;3.05;;;6.40;96.80;;;;;;5042648;28;20456;-81
2021/12/02 04:31:11;;;;;;;5.55;2.92;;;6.30;96.90;;;;;;5044361;28;20625;-81
2021/12/02 04:33:36;;;;;;;4.93;2.95;;;6.40;96.90;;;;;;5044165;28;20032;-80
2021/12/02 04:36:03;;;;;;;4.35;2.75;;;6.30;96.80;;;;;;5042688;28;20021;-80
2021/12/02 04:38:29;;;;;;;3.67;2.22;;;6.30;96.80;;;;;;5040295;28;20590;-80
2021/12/02 04:40:55;;;;;;;3.78;1.85;;;6.30;96.90;;;;;;5040761;28;20121;-80
2021/12/02 04:43:22;;;;;;;3.50;1.98;;;6.30;96.90;;;;;;5039708;28;20214;-80
2021/12/02 04:45:48;;;;;;;2.65;1.85;;;6.20;97.10;;;;;;5040523;28;20025;-80
2021/12/02 04:48:14;;;;;;;2.63;1.88;;;6.20;97.30;;;;;;5040966;28;20088;-80
2021/12/02 04:50:40;;;;;;;5.18;2.88;;;6.30;97.20;;;;;;5042360;28;20051;-80
2021/12/02 04:53:06;;;;;;;4.38;2.40;;;6.30;97.20;;;;;;5044773;28;20058;-80
2021/12/02 04:55:32;;;;;;;6.85;2.83;;;6.30;97.10;;;;;;5053793;28;20268;-81
2021/12/02 04:57:58;;;;;;;3.53;2.13;;;6.30;97.00;;;;;;5053449;28;20021;-81
2021/12/02 05:00:24;;;;;;;3.13;2.20;;;6.20;97.10;;;;;;5049556;28;20037;-80
2021/12/02 05:02:49;;;;;;;4.38;2.17;;;6.20;97.00;;;;;;5050664;28;20032;-80
2021/12/02 05:05:15;;;;;;;3.85;2.50;;;6.20;97.10;;;;;;5042132;28;20032;-80
2021/12/02 05:07:41;;;;;;;3.70;2.28;;;6.20;97.30;;;;;;5041186;28;20403;-81
2021/12/02 05:10:08;;;;;;;2.80;2.13;;;6.10;97.30;;;;;;5041747;28;20435;-80
2021/12/02 05:12:34;;;;;;;6.07;2.65;;;6.10;97.50;;;;;;5041030;28;20017;-80
2021/12/02 05:15:01;;;;;;;7.00;5.07;;;6.10;97.50;;;;;;5042057;28;20324;-81
2021/12/02 05:17:26;;;;;;;6.97;4.60;;;6.10;97.60;;;;;;5040253;28;20094;-80
2021/12/02 05:19:52;;;;;;;19.98;12.18;;;6.10;97.60;;;;;;5042988;28;20654;-80
2021/12/02 05:22:18;;;;;;;16.00;9.80;;;6.00;97.60;;;;;;5043919;28;20029;-81
2021/12/02 05:24:44;;;;;;;52.10;32.47;;;6.30;97.70;;;;;;5050827;28;20644;-81
2021/12/02 05:27:12;;;;;;;18.13;11.38;;;6.10;97.70;;;;;;5052633;28;20036;-81
2021/12/02 05:29:37;;;;;;;103.95;51.45;;;6.10;97.70;;;;;;5046666;28;20108;-82
2021/12/02 05:32:04;;;;;;;30.20;14.75;;;6.10;97.70;;;;;;5052081;28;20056;-81
2021/12/02 05:34:29;;;;;;;12.07;6.40;;;6.10;97.80;;;;;;5059793;28;20017;-83
2021/12/02 05:36:55;;;;;;;34.60;24.70;;;6.10;98.00;;;;;;5034389;28;20108;-80
2021/12/02 05:39:21;;;;;;;10.18;7.85;;;6.10;98.10;;;;;;5047701;28;20040;-81
2021/12/02 05:41:46;;;;;;;13.85;8.90;;;6.10;97.70;;;;;;5042242;28;20037;-80
2021/12/02 05:44:12;;;;;;;13.95;8.20;;;6.10;97.80;;;;;;5039880;28;20511;-79
2021/12/02 05:46:38;;;;;;;10.43;6.85;;;6.10;97.80;;;;;;5038756;28;20451;-80
2021/12/02 05:49:04;;;;;;;19.17;9.35;;;6.10;97.90;;;;;;5039212;28;20029;-82
2021/12/02 05:51:30;;;;;;;11.85;6.90;;;5.20;97.70;;;;;;5039916;28;20422;-81
2021/12/02 05:53:56;;;;;;;3.70;2.50;;;6.10;98.00;;;;;;5039557;28;20016;-80
2021/12/02 05:56:22;;;;;;;7.95;3.70;;;6.10;97.90;;;;;;5038917;28;20020;-80
2021/12/02 05:58:48;;;;;;;13.57;7.15;;;6.10;98.00;;;;;;5039442;28;20504;-81
2021/12/02 06:01:13;;;;;;;5.30;3.05;;;6.20;97.90;;;;;;5039319;28;20058;-80
2021/12/02 06:03:40;;;;;;;6.03;3.65;;;6.20;97.60;;;;;;5039730;28;20234;-81
2021/12/02 06:06:06;;;;;;;5.43;2.67;;;6.20;97.60;;;;;;5040659;28;20021;-79
2021/12/02 06:08:33;;;;;;;5.72;2.78;;;6.20;97.60;;;;;;5039006;28;20056;-80
2021/12/02 06:10:58;;;;;;;4.38;2.50;;;6.20;97.60;;;;;;5039293;28;20488;-79
2021/12/02 06:13:25;;;;;;;2.97;2.00;;;6.20;97.70;;;;;;5041332;28;20146;-80
2021/12/02 06:15:52;;;;;;;7.03;3.85;;;6.30;97.50;;;;;;5039801;28;20629;-80
2021/12/02 06:18:18;;;;;;;10.80;4.85;;;6.20;97.40;;;;;;5040217;28;20391;-80
2021/12/02 06:20:45;;;;;;;9.13;4.88;;;6.30;97.50;;;;;;5040181;28;20151;-80
2021/12/02 06:23:11;;;;;;;9.10;4.43;;;6.30;97.50;;;;;;5038578;28;20033;-80
2021/12/02 06:25:46;;;;;;;10.85;4.72;;;6.30;97.40;;;;;;5040901;28;20230;-81
2021/12/02 06:28:11;;;;;;;9.35;5.00;;;6.30;97.30;;;;;;5040985;28;20017;-81
2021/12/02 06:30:37;;;;;;;12.90;6.25;;;6.40;97.40;;;;;;5054326;28;20525;-81
2021/12/02 06:33:03;;;;;;;15.38;7.72;;;6.40;97.40;;;;;;5044403;28;20636;-81
2021/12/02 06:35:29;;;;;;;11.07;5.80;;;6.40;97.30;;;;;;5043348;28;20025;-81
2021/12/02 06:37:56;;;;;;;12.27;5.30;;;6.60;97.10;;;;;;5042786;28;20500;-80
2021/12/02 06:40:22;;;;;;;13.93;7.22;;;6.70;96.60;;;;;;5043432;28;20025;-81
2021/12/02 06:42:47;;;;;;;7.70;3.67;;;6.70;96.60;;;;;;5043355;28;20029;-81
2021/12/02 06:45:13;;;;;;;9.98;5.20;;;6.70;96.60;;;;;;5044112;28;20210;-81
2021/12/02 06:47:40;;;;;;;11.85;4.95;;;6.80;96.60;;;;;;5044731;28;20358;-80
2021/12/02 06:50:12;;;;;;;15.50;6.72;;;6.80;96.60;;;;;;5044378;28;20052;-80
2021/12/02 06:52:38;;;;;;;7.88;3.97;;;6.80;96.60;;;;;;5043427;28;20067;-81
2021/12/02 06:55:04;;;;;;;3.55;1.80;;;6.90;96.30;;;;;;5043291;28;20057;-81
2021/12/02 06:57:30;;;;;;;10.38;4.53;;;8.30;96.10;;;;;;5043556;28;20029;-81
2021/12/02 06:59:59;;;;;;;13.48;6.18;;;7.20;95.50;;;;;;5043287;28;20053;-81
2021/12/02 07:02:25;;;;;;;10.90;6.72;;;7.30;95.30;;;;;;5043397;28;20041;-81
2021/12/02 07:04:51;;;;;;;20.10;10.65;;;7.50;95.30;;;;;;5026180;28;20056;-81
2021/12/02 07:07:17;;;;;;;11.07;7.55;;;7.50;95.00;;;;;;5043642;28;20510;-81
2021/12/02 07:09:43;;;;;;;10.23;5.13;;;8.10;95.30;;;;;;5044360;28;20016;-81
2021/12/02 07:12:09;;;;;;;13.45;5.57;;;7.50;95.20;;;;;;5043354;28;20044;-81
2021/12/02 07:14:35;;;;;;;23.38;12.88;;;7.40;95.30;;;;;;5044138;28;20059;-81
2021/12/02 07:17:01;;;;;;;11.25;6.50;;;7.50;95.30;;;;;;5044135;28;20029;-81
2021/12/02 07:19:26;;;;;;;7.38;4.57;;;7.50;95.30;;;;;;5043234;28;20096;-81
2021/12/02 07:21:52;;;;;;;7.90;4.90;;;7.50;95.40;;;;;;5043656;28;20089;-81
2021/12/02 07:24:18;;;;;;;10.00;4.95;;;7.50;95.50;;;;;;5043920;28;20021;-81
2021/12/02 07:26:46;;;;;;;10.73;6.47;;;7.50;95.70;;;;;;5046026;28;20508;-81
2021/12/02 07:29:15;;;;;;;19.00;5.28;;;7.40;95.90;;;;;;5046552;28;20468;-81
2021/12/02 07:31:41;;;;;;;6.47;4.30;;;7.50;95.10;;;;;;5042759;28;20025;-81
2021/12/02 07:34:10;;;;;;;9.98;3.60;;;7.70;94.60;;;;;;5046108;28;20025;-80
2021/12/02 07:36:37;;;;;;;5.35;2.75;;;8.00;94.30;;;;;;5046578;28;20347;-81
2021/12/02 07:39:06;;;;;;;8.30;3.80;;;8.20;93.80;;;;;;5046210;28;20704;-81
2021/12/02 07:41:32;;;;;;;10.73;4.68;;;8.40;93.60;;;;;;5046540;28;20036;-81
2021/12/02 07:43:59;;;;;;;14.05;5.75;;;8.60;93.20;;;;;;5047252;28;20040;-81
2021/12/02 07:46:25;;;;;;;16.52;7.82;;;8.90;92.00;;;;;;5047456;28;20025;-81
2021/12/02 07:48:52;;;;;;;13.20;7.47;;;9.00;92.30;;;;;;5048359;28;20025;-81
2021/12/02 07:51:20;;;;;;;10.80;5.28;;;9.10;92.40;;;;;;5047308;28;20021;-81
2021/12/02 07:53:48;;;;;;;14.30;6.78;;;9.30;91.80;;;;;;5047907;28;20106;-82
2021/12/02 07:56:16;;;;;;;21.17;10.38;;;9.30;91.90;;;;;;5048298;28;20024;-81
2021/12/02 07:58:46;;;;;;;32.65;17.30;;;9.40;92.20;;;;;;5048172;28;20585;-81
2021/12/02 08:01:13;;;;;;;14.55;7.90;;;9.40;92.40;;;;;;5048007;28;20094;-81
2021/12/02 08:03:44;;;;;;;15.45;7.18;;;9.40;91.50;;;;;;5052653;28;20017;-83
2021/12/02 08:06:17;;;;;;;13.60;6.93;;;9.50;91.60;;;;;;5053920;28;20028;-82
2021/12/02 08:08:45;;;;;;;6.25;3.67;;;9.60;92.00;;;;;;5053300;28;20033;-81
2021/12/02 08:11:12;;;;;;;16.60;7.75;;;9.80;89.80;;;;;;5052590;28;20044;-81
2021/12/02 08:13:38;;;;;;;6.70;3.50;;;9.80;90.90;;;;;;5052274;28;20029;-80
2021/12/02 08:16:05;;;;;;;7.97;4.03;;;9.90;90.30;;;;;;5051966;28;20025;-80
2021/12/02 08:18:37;;;;;;;3.53;2.13;;;10.00;89.10;;;;;;5051153;28;20108;-81
2021/12/02 08:21:04;;;;;;;5.60;3.15;;;10.20;87.60;;;;;;5046939;28;20029;-81
2021/12/02 08:23:30;;;;;;;5.10;2.00;;;10.10;87.50;;;;;;5048870;28;20021;-81
2021/12/02 08:25:56;;;;;;;2.40;1.33;;;10.20;86.40;;;;;;5049653;28;20640;-81
2021/12/02 08:28:21;;;;;;;1.73;1.17;;;10.20;85.80;;;;;;5046552;28;20040;-81
2021/12/02 08:30:49;;;;;;;0.82;0.70;;;10.20;85.20;;;;;;5043449;28;20531;-81
2021/12/02 08:33:15;;;;;;;2.75;1.70;;;10.30;84.70;;;;;;5042912;28;20021;-81
2021/12/02 08:35:41;;;;;;;2.00;1.13;;;10.40;84.10;;;;;;5042695;28;20067;-81
2021/12/02 08:38:12;;;;;;;0.47;0.40;;;10.40;83.40;;;;;;5041405;28;20687;-80
2021/12/02 08:40:39;;;;;;;0.55;0.50;;;10.60;81.40;;;;;;5041345;28;20072;-81
2021/12/02 08:43:08;;;;;;;1.45;1.27;;;10.70;80.80;;;;;;5040370;28;20045;-81
2021/12/02 08:45:35;;;;;;;0.60;0.60;;;10.70;82.50;;;;;;5041264;28;20036;-81
2021/12/02 08:48:02;;;;;;;1.80;0.70;;;10.60;81.90;;;;;;5042789;28;20134;-81
2021/12/02 08:50:28;;;;;;;1.00;0.80;;;10.70;82.30;;;;;;5044216;28;20217;-81
2021/12/02 08:52:55;;;;;;;0.30;0.25;;;10.70;81.50;;;;;;5042752;28;20017;-80
2021/12/02 08:55:23;;;;;;;1.38;0.90;;;10.80;81.50;;;;;;5040132;28;20060;-81
2021/12/02 08:57:50;;;;;;;5.50;2.60;;;10.80;81.80;;;;;;5039694;28;20017;-81
2021/12/02 09:00:21;;;;;;;0.73;0.70;;;10.90;82.00;;;;;;5041304;28;20108;-81
2021/12/02 09:02:47;;;;;;;0.82;0.70;;;9.10;80.00;;;;;;5047257;28;20013;-80
2021/12/02 09:05:14;;;;;;;0.40;0.38;;;11.00;80.60;;;;;;5045566;28;20029;-80
2021/12/02 09:07:40;;;;;;;1.08;0.90;;;11.00;79.50;;;;;;5040146;28;20029;-79
2021/12/02 09:10:08;;;;;;;5.78;2.03;;;11.10;80.20;;;;;;5040674;28;20036;-81
2021/12/02 09:12:34;;;;;;;2.05;1.17;;;11.00;81.20;;;;;;5046895;28;20472;-83
2021/12/02 09:15:00;;;;;;;1.52;1.00;;;11.00;80.70;;;;;;5042684;28;20033;-81
2021/12/02 09:17:26;;;;;;;1.55;1.10;;;10.90;81.40;;;;;;5046313;28;20014;-81
2021/12/02 09:19:54;;;;;;;2.83;1.50;;;10.90;80.70;;;;;;5052756;28;20100;-83
2021/12/02 09:22:20;;;;;;;1.67;1.30;;;10.90;80.70;;;;;;5046709;28;20028;-81
2021/12/02 09:24:45;;;;;;;1.98;1.20;;;11.00;81.20;;;;;;5043162;28;20025;-81
2021/12/02 09:27:11;;;;;;;1.17;0.45;;;11.00;80.90;;;;;;5044931;28;20028;-82
2021/12/02 09:29:38;;;;;;;2.55;0.60;;;11.10;79.50;;;;;;5043565;28;20021;-82
2021/12/02 09:32:05;;;;;;;0.52;0.52;;;11.10;79.80;;;;;;5044039;28;20048;-81
2021/12/02 09:34:31;;;;;;;1.23;1.13;;;11.40;79.00;;;;;;5042110;28;20029;-81
2021/12/02 09:36:59;;;;;;;2.05;0.80;;;11.40;79.20;;;;;;5042405;28;20598;-82
2021/12/02 09:39:33;;;;;;;1.17;1.02;;;11.40;79.50;;;;;;5044779;28;20586;-82
2021/12/02 09:42:00;;;;;;;3.10;2.15;;;11.40;79.30;;;;;;5044573;28;20036;-82
2021/12/02 09:44:27;;;;;;;3.30;1.70;;;11.40;79.20;;;;;;5045234;28;20515;-83
2021/12/02 09:46:55;;;;;;;1.80;0.73;;;11.40;79.10;;;;;;5045734;28;20232;-81
2021/12/02 09:49:26;;;;;;;1.45;0.90;;;11.50;78.50;;;;;;5047483;28;20028;-81
2021/12/02 09:54:25;;;;;;;3.13;0.70;;;11.70;77.20;;;;;;5045918;28;20025;-82
2021/12/02 09:56:54;;;;;;;2.30;1.17;;;11.80;76.90;;;;;;5046505;28;20024;-82
2021/12/02 09:59:26;;;;;;;1.10;0.50;;;11.80;76.40;;;;;;5045289;28;20122;-82
2021/12/02 10:01:57;;;;;;;0.98;0.45;;;11.80;76.60;;;;;;5046402;28;20025;-81
2021/12/02 10:04:26;;;;;;;2.05;0.82;;;11.80;76.50;;;;;;5046467;28;20056;-81
2021/12/02 10:10:27;;;;;;;3.28;1.10;;;11.80;77.50;;;;;;5039043;28;20590;-83
2021/12/02 10:13:27;;;;;;;3.03;1.45;;;11.80;78.10;;;;;;5037999;28;20064;-82
2021/12/02 10:16:31;;;;;;;1.75;1.33;;;11.90;78.00;;;;;;5022366;28;20041;-82
2021/12/02 10:19:22;;;;;;;2.50;1.00;;;11.90;78.00;;;;;;5040930;28;20182;-82
2021/12/02 10:24:19;;;;;;;2.42;0.50;;;12.20;76.00;;;;;;5051723;28;20044;-81
2021/12/02 10:26:53;;;;;;;0.75;0.70;;;12.40;74.80;;;;;;5030742;28;20390;-81
2021/12/02 10:29:27;;;;;;;4.68;1.50;;;12.60;72.90;;;;;;5040451;28;20695;-82
2021/12/02 10:32:10;;;;;;;1.63;0.90;;;12.70;73.40;;;;;;5038730;28;20037;-83
2021/12/02 10:35:06;;;;;;;2.33;0.70;;;12.80;71.80;;;;;;5037170;28;20628;-83
2021/12/02 10:37:55;;;;;;;0.53;0.30;;;12.90;69.90;;;;;;4982267;28;20070;-84
2021/12/02 10:40:21;;;;;;;1.02;0.60;;;12.90;70.20;;;;;;4973344;28;20086;-78
2021/12/02 10:42:47;;;;;;;1.95;1.10;;;12.80;70.30;;;;;;4958360;28;20030;-81
2021/12/02 10:45:31;;;;;;;0.73;0.63;;;12.90;71.00;;;;;;4960009;28;20035;-81
2021/12/02 10:47:58;;;;;;;1.92;0.75;;;12.70;71.80;;;;;;4959834;28;20041;-81
2021/12/02 10:50:25;;;;;;;2.83;1.23;;;12.50;72.20;;;;;;4957623;28;20026;-82
2021/12/02 10:52:51;;;;;;;2.38;0.65;;;12.50;73.10;;;;;;4956902;28;20153;-82
2021/12/02 10:55:22;;;;;;;6.25;2.63;;;12.50;73.00;;;;;;4957250;28;20061;-81
2021/12/02 10:57:51;;;;;;;14.48;5.10;;;12.50;74.90;;;;;;4956672;28;20037;-81
2021/12/02 11:00:22;;;;;;;6.22;1.73;;;12.50;75.10;;;;;;4940703;28;20046;-82
2021/12/02 11:02:52;;;;;;;7.75;4.15;;;12.50;73.80;;;;;;4957012;28;20062;-82
2021/12/02 11:05:29;;;;;;;3.35;1.05;;;12.50;74.10;;;;;;4957051;28;20294;-82
2021/12/02 11:08:05;;;;;;;2.08;0.90;;;12.40;72.80;;;;;;4940759;28;20617;-81
2021/12/02 11:10:51;;;;;;;3.38;1.10;;;12.40;75.10;;;;;;4956882;28;20547;-82
2021/12/02 11:13:26;;;;;;;1.20;0.98;;;12.30;76.60;;;;;;4975936;28;20036;-82
2021/12/02 11:15:53;;;;;;;1.20;1.00;;;12.20;76.80;;;;;;5043271;28;20108;-83
2021/12/02 11:18:22;;;;;;;1.10;0.85;;;12.10;78.80;;;;;;5048361;28;20021;-83
2021/12/02 11:20:51;;;;;;;1.52;0.90;;;12.10;77.50;;;;;;5052498;28;20234;-82
2021/12/02 11:23:28;;;;;;;1.40;0.82;;;11.80;78.70;;;;;;5066078;28;20028;-83
2021/12/02 11:25:59;;;;;;;6.20;1.45;;;11.80;78.80;;;;;;5068653;28;20069;-85
2021/12/02 11:28:31;;;;;;;1.73;0.90;;;11.90;79.90;;;;;;5061009;28;20013;-83
2021/12/02 11:31:06;;;;;;;3.20;1.33;;;11.90;80.00;;;;;;5043962;28;20031;-82
2021/12/02 11:33:38;;;;;;;2.42;1.10;;;11.80;78.40;;;;;;5046592;28;20052;-81
2021/12/02 11:36:05;;;;;;;1.30;0.80;;;11.80;79.60;;;;;;5049973;28;20009;-81
2021/12/02 11:38:33;;;;;;;0.95;0.65;;;11.60;79.50;;;;;;5045860;28;20116;-82
2021/12/02 11:41:02;;;;;;;2.17;0.40;;;11.60;79.30;;;;;;5053370;28;20025;-82
2021/12/02 11:43:39;;;;;;;3.42;1.08;;;11.50;80.20;;;;;;5054352;28;20116;-81
2021/12/02 11:46:08;;;;;;;1.98;0.85;;;11.60;82.70;;;;;;5047357;28;20017;-82
2021/12/02 11:48:38;;;;;;;1.77;0.75;;;11.50;81.90;;;;;;5045015;28;20500;-80
2021/12/02 11:51:08;;;;;;;2.65;1.80;;;11.50;83.10;;;;;;5046080;28;20021;-80
2021/12/02 11:53:34;;;;;;;1.75;1.38;;;11.60;82.60;;;;;;5042501;28;20041;-80
2021/12/02 11:56:08;;;;;;;0.50;0.40;;;11.60;83.10;;;;;;5043766;28;20049;-83
2021/12/02 11:58:33;;;;;;;0.80;0.40;;;10.90;79.40;;;;;;5046713;28;20059;-81
2021/12/02 12:00:59;;;;;;;1.45;0.50;;;12.10;79.80;;;;;;5041949;28;20490;-82
2021/12/02 12:03:32;;;;;;;2.17;0.70;;;12.20;78.50;;;;;;5042848;28;20108;-82
2021/12/02 12:06:10;;;;;;;1.77;0.32;;;12.40;77.70;;;;;;5049085;28;20021;-82
2021/12/02 12:08:41;;;;;;;0.55;0.45;;;12.30;77.40;;;;;;5045667;28;20046;-81
2021/12/02 12:11:32;;;;;;;1.90;1.30;;;12.20;76.20;;;;;;5046780;28;20013;-81
2021/12/02 12:14:01;;;;;;;2.33;1.08;;;12.10;79.10;;;;;;5048291;28;20379;-80
2021/12/02 12:16:30;;;;;;;1.33;0.50;;;11.90;80.10;;;;;;5048226;28;20017;-80
2021/12/02 12:19:13;;;;;;;1.27;0.88;;;11.70;78.90;;;;;;5048225;28;20457;-82
2021/12/02 12:21:41;;;;;;;1.02;0.70;;;11.80;79.60;;;;;;5055363;28;20040;-82
2021/12/02 12:24:08;;;;;;;2.15;0.60;;;11.60;78.50;;;;;;5056791;28;20627;-82
2021/12/02 12:26:37;;;;;;;1.45;0.93;;;11.70;79.70;;;;;;5049864;28;20024;-82
2021/12/02 12:29:09;;;;;;;1.90;1.20;;;11.70;80.00;;;;;;5051162;28;20554;-81
2021/12/02 12:32:03;;;;;;;1.98;0.90;;;11.60;80.50;;;;;;5051241;28;20324;-81
2021/12/02 12:34:30;;;;;;;2.60;0.80;;;11.70;79.10;;;;;;5047169;28;20094;-81
2021/12/02 12:36:58;;;;;;;0.70;0.40;;;11.70;77.90;;;;;;5045406;28;20029;-81
2021/12/02 12:39:32;;;;;;;2.67;1.05;;;11.90;76.90;;;;;;5046373;28;20043;-81
2021/12/02 12:42:16;;;;;;;0.95;0.75;;;12.00;77.80;;;;;;5043400;28;20656;-80
2021/12/02 12:44:44;;;;;;;2.33;1.10;;;12.20;77.00;;;;;;5042199;28;20017;-80
2021/12/02 12:47:10;;;;;;;3.10;1.33;;;12.50;75.80;;;;;;5047580;28;20021;-81
2021/12/02 12:49:37;;;;;;;1.98;1.25;;;12.80;74.20;;;;;;5048349;28;20731;-81
2021/12/02 12:52:18;;;;;;;4.20;2.08;;;13.00;73.70;;;;;;5041484;28;20463;-82
2021/12/02 12:55:17;;;;;;;0.65;0.60;;;13.00;74.90;;;;;;5023941;28;20697;-82
2021/12/02 12:58:19;;;;;;;1.80;0.80;;;12.90;75.00;;;;;;5017214;28;20049;-85
2021/12/02 13:00:50;;;;;;;1.30;0.60;;;12.70;75.20;;;;;;4940952;28;20833;-81
2021/12/02 13:03:44;;;;;;;1.42;0.60;;;12.50;76.20;;;;;;4950054;28;20066;-80
2021/12/02 13:06:21;;;;;;;3.45;0.90;;;12.50;77.00;;;;;;4931324;29;20039;-82
2021/12/02 13:08:53;;;;;;;1.52;0.90;;;12.30;79.70;;;;;;4944399;28;20031;-81
2021/12/02 13:11:23;;;;;;;1.40;0.95;;;12.30;81.70;;;;;;4941481;28;20054;-80
2021/12/02 13:13:50;;;;;;;1.83;1.08;;;12.50;80.00;;;;;;4943831;28;20301;-80
2021/12/02 13:16:20;;;;;;;3.08;0.90;;;12.40;80.70;;;;;;4945335;29;20787;-80
2021/12/02 13:18:59;;;;;;;5.28;1.13;;;12.30;83.00;;;;;;4945252;28;20098;-80
2021/12/02 13:21:28;;;;;;;2.20;1.20;;;12.40;83.30;;;;;;4948163;29;20035;-80
2021/12/02 13:24:05;;;;;;;1.88;0.88;;;12.30;81.20;;;;;;4951445;29;20027;-79
2021/12/02 13:26:32;;;;;;;3.67;2.20;;;12.10;81.30;;;;;;4950466;29;20054;-80
2021/12/02 13:29:05;;;;;;;1.02;0.60;;;12.00;83.30;;;;;;4952353;29;20036;-81
2021/12/02 13:31:31;;;;;;;1.63;0.90;;;11.90;81.00;;;;;;4949348;29;20086;-81
2021/12/02 13:34:05;;;;;;;3.25;1.02;;;11.90;82.80;;;;;;4987496;28;20718;-81
2021/12/02 13:36:36;;;;;;;0.85;0.70;;;11.80;83.00;;;;;;5046114;28;20055;-80
2021/12/02 13:39:15;;;;;;;2.63;0.93;;;11.80;82.00;;;;;;5042344;28;20036;-80